Time;durP1;ratioP1;P1;durP2;ratioP2;P2;SDS_P1;SDS_P2;PMS_P1;PMS_P2;Temp;Humidity;BMP_temperature;BMP_pressure;BME280_temperature;BME280_humidity;BME280_pressure;Samples;Min_cycle;Max_cycle;Signal;HPM_P1;HPM_P2
2024/04/16 00:00:04;;;;;;;5.43;3.40;;;6.30;99.90;;;;;;797691;177;26456;-79
2024/04/16 00:02:30;;;;;;;11.27;4.70;;;6.30;99.90;;;;;;786872;180;26475;-77
2024/04/16 00:04:58;;;;;;;6.33;2.43;;;6.30;99.90;;;;;;789380;180;26476;-76
2024/04/16 00:07:23;;;;;;;4.50;2.40;;;6.20;99.90;;;;;;776533;183;26496;-76
2024/04/16 00:09:50;;;;;;;5.70;2.40;;;6.30;99.90;;;;;;777460;183;27058;-76
2024/04/16 00:12:17;;;;;;;3.43;1.90;;;6.40;99.90;;;;;;776532;180;26503;-75
2024/04/16 00:14:43;;;;;;;6.53;2.03;;;6.40;99.90;;;;;;780856;183;26492;-75
2024/04/16 00:17:10;;;;;;;4.70;1.80;;;6.40;99.90;;;;;;782780;181;26521;-76
2024/04/16 00:19:36;;;;;;;6.53;2.50;;;6.50;99.90;;;;;;788474;180;26519;-77
2024/04/16 00:22:03;;;;;;;6.73;2.00;;;6.50;99.90;;;;;;788807;180;27013;-76
2024/04/16 00:24:30;;;;;;;5.93;2.03;;;6.60;99.90;;;;;;788921;180;26445;-78
2024/04/16 00:26:56;;;;;;;8.13;2.10;;;6.60;99.90;;;;;;789681;180;26457;-77
2024/04/16 00:29:23;;;;;;;4.70;1.87;;;6.60;99.90;;;;;;781940;181;26488;-76
2024/04/16 00:31:50;;;;;;;3.37;1.70;;;6.60;99.90;;;;;;793793;180;26452;-76
2024/04/16 00:34:16;;;;;;;4.10;1.80;;;6.70;99.90;;;;;;792526;180;27066;-76
2024/04/16 00:36:43;;;;;;;6.33;2.20;;;6.70;99.90;;;;;;790897;180;26472;-76
2024/04/16 00:39:12;;;;;;;5.70;1.80;;;6.60;99.90;;;;;;792764;180;27124;-76
2024/04/16 00:41:36;;;;;;;6.97;1.80;;;6.60;99.90;;;;;;790240;180;26542;-76
2024/04/16 00:44:02;;;;;;;3.23;2.00;;;6.50;99.90;;;;;;790833;180;27058;-76
2024/04/16 00:46:29;;;;;;;7.03;2.50;;;6.50;99.90;;;;;;788071;180;26465;-75
2024/04/16 00:48:56;;;;;;;4.50;2.00;;;6.50;99.90;;;;;;789623;180;27143;-76
2024/04/16 00:51:22;;;;;;;4.87;1.90;;;6.50;99.90;;;;;;793103;180;26509;-77
2024/04/16 00:53:49;;;;;;;29.07;11.53;;;6.60;99.90;;;;;;793414;180;26446;-75
2024/04/16 00:56:15;;;;;;;36.83;13.80;;;6.70;99.90;;;;;;784301;180;26464;-76
2024/04/16 00:58:42;;;;;;;13.57;4.97;;;6.70;99.90;;;;;;776886;183;27041;-76
2024/04/16 01:01:09;;;;;;;12.70;5.87;;;6.70;99.90;;;;;;782905;181;26460;-75
2024/04/16 01:03:35;;;;;;;10.50;4.93;;;6.70;99.90;;;;;;786972;180;27096;-75
2024/04/16 01:06:02;;;;;;;8.03;3.90;;;6.70;99.90;;;;;;793484;180;26504;-76
2024/04/16 01:08:28;;;;;;;7.07;3.17;;;6.80;99.90;;;;;;786595;180;27070;-76
2024/04/16 01:10:55;;;;;;;8.10;2.97;;;6.70;99.90;;;;;;782807;180;26473;-75
2024/04/16 01:13:21;;;;;;;6.20;2.53;;;6.70;99.90;;;;;;783058;180;27017;-76
2024/04/16 01:15:48;;;;;;;6.67;2.87;;;6.60;99.90;;;;;;784724;180;26472;-76
2024/04/16 01:18:16;;;;;;;5.33;2.20;;;6.50;99.90;;;;;;786689;180;27017;-76
2024/04/16 01:20:42;;;;;;;8.60;3.10;;;6.50;99.90;;;;;;779766;183;27066;-76
2024/04/16 01:23:09;;;;;;;3.03;1.63;;;6.50;99.90;;;;;;779702;183;26479;-76
2024/04/16 01:25:35;;;;;;;10.27;3.47;;;6.50;99.90;;;;;;781075;183;27025;-76
2024/04/16 01:28:02;;;;;;;8.77;2.13;;;6.60;99.90;;;;;;778250;183;26475;-76
2024/04/16 01:30:28;;;;;;;4.80;2.53;;;6.60;99.90;;;;;;783227;182;27034;-75
2024/04/16 01:32:55;;;;;;;6.80;2.67;;;6.50;99.90;;;;;;783343;181;26466;-76
2024/04/16 01:35:22;;;;;;;6.23;2.10;;;6.40;99.90;;;;;;776963;184;26549;-76
2024/04/16 01:37:48;;;;;;;10.70;2.80;;;6.40;99.90;;;;;;782276;181;26497;-76
2024/04/16 01:40:15;;;;;;;6.20;2.07;;;6.40;99.90;;;;;;784657;180;27033;-76
2024/04/16 01:42:42;;;;;;;4.57;2.00;;;6.40;99.90;;;;;;791752;180;26481;-75
2024/04/16 01:45:08;;;;;;;7.07;2.50;;;6.40;99.90;;;;;;792527;180;26469;-78
2024/04/16 01:47:35;;;;;;;5.27;2.17;;;6.40;99.90;;;;;;776073;184;26654;-76
2024/04/16 01:50:02;;;;;;;3.70;1.87;;;6.30;99.90;;;;;;770183;184;26584;-77
2024/04/16 01:52:28;;;;;;;5.17;2.20;;;6.30;99.90;;;;;;770890;183;26475;-76
2024/04/16 01:54:55;;;;;;;8.13;2.30;;;6.40;99.90;;;;;;777826;183;26616;-77
2024/04/16 01:57:22;;;;;;;3.90;2.00;;;6.40;99.90;;;;;;775846;182;26581;-77
2024/04/16 01:59:48;;;;;;;8.07;2.70;;;6.40;99.90;;;;;;786363;181;26457;-77
2024/04/16 02:02:15;;;;;;;5.73;1.83;;;6.40;99.90;;;;;;792523;180;26570;-77
2024/04/16 02:04:41;;;;;;;5.03;2.10;;;6.40;99.90;;;;;;793813;179;26444;-76
2024/04/16 02:07:08;;;;;;;4.63;2.53;;;6.50;99.90;;;;;;792145;180;26493;-76
2024/04/16 02:09:35;;;;;;;3.63;1.80;;;6.50;99.90;;;;;;787785;180;26566;-76
2024/04/16 02:12:01;;;;;;;4.43;2.50;;;6.50;99.90;;;;;;792254;180;26440;-76
2024/04/16 02:14:28;;;;;;;5.07;2.33;;;6.50;99.90;;;;;;789191;180;26473;-76
2024/04/16 02:16:56;;;;;;;4.20;2.30;;;6.50;99.90;;;;;;790712;180;26465;-76
2024/04/16 02:19:21;;;;;;;5.30;2.23;;;6.50;99.90;;;;;;783884;180;26662;-76
2024/04/16 02:21:47;;;;;;;3.47;2.17;;;6.50;99.90;;;;;;781465;181;26665;-75
2024/04/16 02:24:14;;;;;;;7.27;2.00;;;6.40;99.90;;;;;;775754;184;26585;-76
2024/04/16 02:26:41;;;;;;;9.90;2.90;;;6.40;99.90;;;;;;775480;183;27013;-77
2024/04/16 02:29:07;;;;;;;9.83;3.73;;;6.40;99.90;;;;;;779435;183;26600;-76
2024/04/16 02:31:34;;;;;;;5.70;2.30;;;6.30;99.90;;;;;;785958;181;26518;-78
2024/04/16 02:34:00;;;;;;;10.73;2.63;;;6.30;99.90;;;;;;787768;181;26486;-77
2024/04/16 02:36:27;;;;;;;6.97;2.20;;;6.30;99.90;;;;;;788790;181;26436;-77
2024/04/16 02:38:54;;;;;;;6.47;2.10;;;6.30;99.90;;;;;;787907;180;26482;-77
2024/04/16 02:41:20;;;;;;;7.67;1.87;;;6.30;99.90;;;;;;776894;183;26501;-76
2024/04/16 02:43:47;;;;;;;7.30;2.60;;;6.30;99.90;;;;;;783064;180;26512;-76
2024/04/16 02:46:13;;;;;;;8.57;2.33;;;6.30;99.90;;;;;;779189;180;26540;-76
2024/04/16 02:48:40;;;;;;;5.80;2.43;;;6.20;99.90;;;;;;784482;181;26628;-76
2024/04/16 02:51:07;;;;;;;3.77;1.80;;;6.30;99.90;;;;;;777438;181;26483;-76
2024/04/16 02:53:33;;;;;;;3.17;1.83;;;6.30;99.90;;;;;;780244;181;26535;-77
2024/04/16 02:56:00;;;;;;;6.70;2.00;;;6.30;99.90;;;;;;781959;182;27117;-76
2024/04/16 02:58:26;;;;;;;7.07;2.17;;;6.30;99.90;;;;;;781776;181;26542;-77
2024/04/16 03:00:53;;;;;;;7.90;2.53;;;6.30;99.90;;;;;;776604;183;27065;-76
2024/04/16 03:03:19;;;;;;;12.87;2.53;;;6.40;99.90;;;;;;786899;181;26533;-77
2024/04/16 03:05:46;;;;;;;4.93;1.80;;;6.40;99.90;;;;;;784544;182;27068;-77
2024/04/16 03:08:13;;;;;;;2.23;1.50;;;6.40;99.90;;;;;;778331;181;26480;-77
2024/04/16 03:10:39;;;;;;;6.60;2.13;;;6.50;99.90;;;;;;784267;181;26682;-76
2024/04/16 03:13:06;;;;;;;6.33;1.80;;;6.50;99.90;;;;;;781259;181;26450;-77
2024/04/16 03:15:32;;;;;;;7.03;2.30;;;6.50;99.90;;;;;;775681;184;26493;-77
2024/04/16 03:17:59;;;;;;;5.83;2.00;;;6.40;99.90;;;;;;784638;183;26466;-77
2024/04/16 03:20:26;;;;;;;9.13;2.73;;;6.40;99.90;;;;;;782012;180;26508;-77
2024/04/16 03:22:52;;;;;;;7.33;1.97;;;6.30;99.90;;;;;;785023;182;26459;-78
2024/04/16 03:25:19;;;;;;;6.47;2.53;;;6.30;99.90;;;;;;779270;181;26515;-77
2024/04/16 03:27:45;;;;;;;10.23;2.43;;;6.20;99.90;;;;;;781910;182;26543;-77
2024/04/16 03:30:12;;;;;;;4.27;2.20;;;6.20;99.90;;;;;;779111;182;26650;-77
2024/04/16 03:32:38;;;;;;;8.40;2.73;;;6.20;99.90;;;;;;781293;182;26550;-76
2024/04/16 03:35:05;;;;;;;10.70;2.63;;;6.20;99.90;;;;;;779862;182;26614;-77
2024/04/16 03:37:32;;;;;;;9.97;3.17;;;6.10;99.90;;;;;;782386;182;27019;-77
2024/04/16 03:39:58;;;;;;;11.00;2.70;;;6.10;99.90;;;;;;776110;181;26650;-76
2024/04/16 03:42:25;;;;;;;7.03;2.67;;;6.00;99.90;;;;;;779517;183;26527;-76
2024/04/16 03:44:52;;;;;;;8.87;3.20;;;6.00;99.90;;;;;;779073;183;26471;-76
2024/04/16 03:47:18;;;;;;;11.77;3.13;;;6.20;99.90;;;;;;778860;183;27060;-76
2024/04/16 03:49:45;;;;;;;6.20;2.73;;;6.20;99.90;;;;;;779760;183;26514;-77
2024/04/16 03:52:11;;;;;;;8.73;3.07;;;6.20;99.90;;;;;;782263;180;26516;-77
2024/04/16 03:54:38;;;;;;;6.83;2.43;;;6.20;99.90;;;;;;783671;181;26479;-77
2024/04/16 03:57:05;;;;;;;10.17;2.93;;;6.20;99.90;;;;;;786775;180;28084;-76
2024/04/16 03:59:38;;;;;;;9.30;3.67;;;6.30;99.90;;;;;;779247;181;26513;-75
2024/04/16 04:02:05;;;;;;;14.60;4.50;;;6.30;99.90;;;;;;786192;180;26628;-76
2024/04/16 04:04:31;;;;;;;9.37;3.23;;;6.30;99.90;;;;;;790364;180;26615;-77
2024/04/16 04:06:58;;;;;;;5.67;2.70;;;6.30;99.90;;;;;;788934;180;26456;-77
2024/04/16 04:09:25;;;;;;;13.53;3.67;;;6.30;99.90;;;;;;793302;180;26456;-77
2024/04/16 04:11:51;;;;;;;12.60;3.17;;;6.30;99.90;;;;;;791043;181;26464;-77
2024/04/16 04:14:17;;;;;;;14.33;3.43;;;6.20;99.90;;;;;;790276;181;26470;-77
2024/04/16 04:16:44;;;;;;;9.17;3.93;;;6.20;99.90;;;;;;780737;182;26572;-77
2024/04/16 04:19:11;;;;;;;9.70;3.27;;;6.10;99.90;;;;;;781184;183;26584;-77
2024/04/16 04:21:37;;;;;;;7.60;3.37;;;6.10;99.90;;;;;;781664;183;26716;-77
2024/04/16 04:24:04;;;;;;;8.33;3.30;;;6.20;99.90;;;;;;781240;181;26492;-77
2024/04/16 04:26:30;;;;;;;14.33;3.70;;;6.20;99.90;;;;;;781216;183;26491;-77
2024/04/16 04:28:57;;;;;;;8.93;3.13;;;6.20;99.90;;;;;;782694;183;26496;-77
2024/04/16 04:31:24;;;;;;;9.23;3.73;;;6.30;99.90;;;;;;785769;182;26486;-76
2024/04/16 04:33:50;;;;;;;8.23;3.70;;;6.40;99.90;;;;;;780352;182;26531;-76
2024/04/16 04:36:17;;;;;;;9.80;2.97;;;6.60;99.90;;;;;;785033;182;27037;-76
2024/04/16 04:38:43;;;;;;;6.20;2.97;;;6.70;99.90;;;;;;783511;182;26462;-75
2024/04/16 04:41:11;;;;;;;11.53;3.47;;;6.80;99.90;;;;;;781363;182;27028;-77
2024/04/16 04:43:37;;;;;;;17.20;3.60;;;6.70;99.90;;;;;;782458;182;26635;-77
2024/04/16 04:46:04;;;;;;;13.93;3.63;;;6.60;99.90;;;;;;776503;183;26508;-77
2024/04/16 04:48:30;;;;;;;8.63;3.33;;;6.60;99.90;;;;;;786030;182;26463;-77
2024/04/16 04:50:57;;;;;;;13.13;3.43;;;6.50;99.90;;;;;;775526;184;26530;-77
2024/04/16 04:53:25;;;;;;;8.43;2.77;;;6.50;99.90;;;;;;779923;183;27033;-76
2024/04/16 04:55:50;;;;;;;7.10;3.00;;;6.40;99.90;;;;;;780525;183;26512;-75
2024/04/16 04:58:17;;;;;;;10.10;3.63;;;6.50;99.90;;;;;;780491;180;26642;-77
2024/04/16 05:00:44;;;;;;;3.80;2.43;;;6.40;99.90;;;;;;778795;183;26515;-77
2024/04/16 05:03:10;;;;;;;4.03;2.40;;;6.40;99.90;;;;;;779639;183;26569;-77
2024/04/16 05:05:37;;;;;;;10.07;2.70;;;6.40;99.90;;;;;;778766;182;26486;-76
2024/04/16 05:08:03;;;;;;;7.40;2.33;;;6.30;99.90;;;;;;780111;181;27047;-76
2024/04/16 05:10:30;;;;;;;7.47;2.87;;;6.30;99.90;;;;;;783355;181;26496;-76
2024/04/16 05:12:57;;;;;;;9.63;2.80;;;6.30;99.90;;;;;;778960;183;28143;-76
2024/04/16 05:15:23;;;;;;;7.87;2.73;;;6.30;99.90;;;;;;787643;180;26556;-77
2024/04/16 05:17:50;;;;;;;9.60;2.40;;;6.30;99.90;;;;;;792033;180;27064;-75
2024/04/16 05:20:16;;;;;;;9.10;2.83;;;6.30;99.90;;;;;;785857;180;26626;-77
2024/04/16 05:22:44;;;;;;;7.20;2.37;;;6.30;99.90;;;;;;790061;180;26471;-79
2024/04/16 05:25:10;;;;;;;10.67;2.70;;;6.30;99.90;;;;;;784187;180;26453;-77
2024/04/16 05:27:37;;;;;;;5.57;2.00;;;6.30;99.90;;;;;;785874;180;26452;-77
2024/04/16 05:30:04;;;;;;;6.30;3.80;;;6.40;99.90;;;;;;787757;180;26477;-76
2024/04/16 05:32:31;;;;;;;6.53;2.67;;;6.50;99.90;;;;;;791040;179;26549;-77
2024/04/16 05:34:57;;;;;;;9.17;2.30;;;6.50;99.90;;;;;;789941;181;26460;-77
2024/04/16 05:37:24;;;;;;;5.90;2.87;;;6.60;99.90;;;;;;786629;180;26445;-77
2024/04/16 05:39:50;;;;;;;7.60;4.07;;;6.70;99.90;;;;;;787851;180;26461;-77
2024/04/16 05:42:17;;;;;;;8.50;3.60;;;6.70;99.90;;;;;;790124;181;26490;-77
2024/04/16 05:44:44;;;;;;;5.57;3.17;;;6.70;99.90;;;;;;781255;180;26688;-77
2024/04/16 05:47:10;;;;;;;6.63;3.23;;;6.80;99.90;;;;;;780874;183;26627;-78
2024/04/16 05:49:37;;;;;;;8.50;3.60;;;6.80;99.90;;;;;;779717;183;26485;-76
2024/04/16 05:52:04;;;;;;;7.47;3.20;;;6.90;99.90;;;;;;777861;183;26512;-76
2024/04/16 05:54:30;;;;;;;5.27;2.83;;;7.00;99.90;;;;;;780904;183;26486;-76
2024/04/16 05:56:58;;;;;;;6.83;2.77;;;7.00;99.90;;;;;;778320;183;26481;-78
2024/04/16 05:59:23;;;;;;;11.23;2.77;;;7.10;99.90;;;;;;780914;181;26488;-77
2024/04/16 06:01:50;;;;;;;5.27;3.00;;;7.20;99.90;;;;;;777587;182;26998;-77
2024/04/16 06:04:17;;;;;;;5.93;2.30;;;7.20;99.90;;;;;;774726;184;26503;-77
2024/04/16 06:06:43;;;;;;;8.03;2.87;;;7.10;99.90;;;;;;787259;181;26449;-77
2024/04/16 06:09:10;;;;;;;11.87;4.53;;;7.10;99.90;;;;;;794210;180;26468;-76
2024/04/16 06:11:36;;;;;;;5.07;3.07;;;7.10;99.90;;;;;;792657;180;26447;-77
2024/04/16 06:14:03;;;;;;;5.70;2.87;;;7.20;99.90;;;;;;797266;180;26723;-77
2024/04/16 06:16:29;;;;;;;9.73;4.03;;;7.20;99.90;;;;;;793369;180;26446;-78
2024/04/16 06:18:56;;;;;;;6.70;2.83;;;7.10;99.90;;;;;;793267;179;26630;-79
2024/04/16 06:21:23;;;;;;;6.93;3.43;;;7.10;99.90;;;;;;796322;180;26481;-78
2024/04/16 06:23:50;;;;;;;7.93;3.13;;;7.00;99.90;;;;;;793747;180;26474;-77
2024/04/16 06:26:17;;;;;;;3.33;2.23;;;6.90;99.90;;;;;;793331;180;26624;-78
2024/04/16 06:28:43;;;;;;;3.33;2.80;;;6.90;99.90;;;;;;788621;177;26441;-79
2024/04/16 06:31:10;;;;;;;11.00;3.70;;;6.90;99.90;;;;;;788253;178;26462;-76
2024/04/16 06:33:37;;;;;;;9.40;3.30;;;7.00;99.90;;;;;;791315;180;26488;-76
2024/04/16 06:36:04;;;;;;;8.07;3.37;;;7.00;99.90;;;;;;790845;177;26925;-77
2024/04/16 06:38:31;;;;;;;7.83;3.47;;;7.00;99.90;;;;;;793039;180;27056;-78
2024/04/16 06:40:59;;;;;;;7.83;3.20;;;7.00;99.90;;;;;;787415;181;26477;-77
2024/04/16 06:43:24;;;;;;;2.93;2.33;;;7.00;99.90;;;;;;790490;181;27011;-76
2024/04/16 06:45:50;;;;;;;8.80;4.00;;;7.00;99.90;;;;;;784077;181;26505;-75
2024/04/16 06:48:17;;;;;;;9.80;3.03;;;7.00;99.90;;;;;;782538;180;26991;-77
2024/04/16 06:50:46;;;;;;;13.53;4.27;;;7.00;99.90;;;;;;788093;180;26505;-78
2024/04/16 06:53:12;;;;;;;9.60;4.00;;;6.90;99.90;;;;;;786883;180;26449;-78
2024/04/16 06:55:39;;;;;;;4.70;2.80;;;6.90;99.90;;;;;;778084;183;26492;-77
2024/04/16 06:58:05;;;;;;;9.10;3.77;;;6.80;99.90;;;;;;780221;183;26479;-78
2024/04/16 07:00:32;;;;;;;13.23;4.67;;;6.80;99.90;;;;;;786905;181;26465;-78
2024/04/16 07:02:59;;;;;;;4.87;2.63;;;6.70;99.90;;;;;;783077;183;26494;-78
2024/04/16 07:05:25;;;;;;;9.03;3.53;;;6.70;99.90;;;;;;781020;183;26471;-77
2024/04/16 07:07:52;;;;;;;6.13;4.00;;;6.70;99.90;;;;;;786089;181;26473;-77
2024/04/16 07:10:18;;;;;;;7.27;3.03;;;6.60;99.90;;;;;;788844;172;26643;-77
2024/04/16 07:12:45;;;;;;;8.73;2.50;;;6.60;99.90;;;;;;821284;173;26430;-75
2024/04/16 07:15:11;;;;;;;6.37;3.00;;;6.60;99.90;;;;;;811199;174;26424;-75
2024/04/16 07:17:38;;;;;;;6.53;2.93;;;6.50;99.90;;;;;;813141;174;26443;-76
2024/04/16 07:20:05;;;;;;;6.60;2.53;;;6.50;99.90;;;;;;820134;174;26487;-75
2024/04/16 07:22:32;;;;;;;4.43;2.00;;;6.40;99.90;;;;;;808619;176;26434;-77
2024/04/16 07:24:58;;;;;;;3.73;2.43;;;6.40;99.90;;;;;;808628;177;26436;-76
2024/04/16 07:27:25;;;;;;;3.53;2.33;;;6.40;99.90;;;;;;809664;177;26439;-76
2024/04/16 07:29:51;;;;;;;2.77;2.53;;;6.30;99.90;;;;;;810148;176;26459;-77
2024/04/16 07:32:18;;;;;;;8.30;2.43;;;6.30;99.90;;;;;;810747;177;26524;-78
2024/04/16 07:34:45;;;;;;;8.90;3.33;;;6.30;99.90;;;;;;807799;177;26428;-78
2024/04/16 07:37:11;;;;;;;3.30;2.50;;;6.30;99.90;;;;;;810504;177;26411;-77
2024/04/16 07:39:38;;;;;;;6.87;2.93;;;6.20;99.90;;;;;;809442;177;26459;-76
2024/04/16 07:42:04;;;;;;;7.77;2.97;;;6.30;99.90;;;;;;809766;177;27054;-77
2024/04/16 07:44:31;;;;;;;4.57;2.70;;;6.20;99.90;;;;;;809730;177;26446;-76
2024/04/16 07:46:59;;;;;;;4.93;2.60;;;6.20;99.90;;;;;;809357;177;26480;-76
2024/04/16 07:49:24;;;;;;;5.83;2.87;;;6.20;99.90;;;;;;809788;177;26420;-77
2024/04/16 07:51:51;;;;;;;5.40;2.80;;;6.20;99.90;;;;;;810151;177;26520;-76
2024/04/16 07:54:17;;;;;;;3.73;2.50;;;6.30;99.90;;;;;;811239;176;26431;-78
2024/04/16 07:56:44;;;;;;;4.13;2.83;;;6.40;99.90;;;;;;812544;177;26405;-78
2024/04/16 07:59:10;;;;;;;5.90;3.10;;;6.40;99.90;;;;;;808036;177;26438;-77
2024/04/16 08:01:37;;;;;;;4.57;2.83;;;6.40;99.90;;;;;;807000;177;26452;-76
2024/04/16 08:04:04;;;;;;;4.60;2.30;;;6.50;99.90;;;;;;810139;177;26395;-76
2024/04/16 08:06:30;;;;;;;4.00;3.00;;;6.50;99.90;;;;;;809556;176;26420;-77
2024/04/16 08:08:57;;;;;;;5.93;3.87;;;6.50;99.90;;;;;;806873;177;26532;-77
2024/04/16 08:11:24;;;;;;;3.60;2.83;;;6.60;99.90;;;;;;807431;177;26472;-77
2024/04/16 08:13:50;;;;;;;6.47;3.00;;;6.70;99.90;;;;;;809668;177;26946;-77
2024/04/16 08:16:17;;;;;;;4.57;3.30;;;6.70;99.90;;;;;;809980;177;26471;-78
2024/04/16 08:18:43;;;;;;;10.57;6.00;;;6.80;99.90;;;;;;809713;177;27074;-76
2024/04/16 08:21:10;;;;;;;5.57;3.40;;;6.90;99.90;;;;;;810397;177;26502;-76
2024/04/16 08:23:37;;;;;;;5.80;3.43;;;7.00;99.90;;;;;;811903;176;26416;-78
2024/04/16 08:26:03;;;;;;;4.60;3.47;;;7.00;99.90;;;;;;806861;176;26478;-77
2024/04/16 08:28:30;;;;;;;4.13;3.13;;;7.00;99.90;;;;;;809903;177;26427;-77
2024/04/16 08:30:58;;;;;;;7.27;3.90;;;7.20;99.90;;;;;;809702;177;26495;-78
2024/04/16 08:33:25;;;;;;;6.27;3.70;;;7.30;99.90;;;;;;809503;177;26436;-77
2024/04/16 08:35:51;;;;;;;13.47;6.43;;;7.40;99.90;;;;;;809556;177;27025;-77
2024/04/16 08:38:18;;;;;;;8.17;4.43;;;7.50;99.90;;;;;;809052;177;26403;-76
2024/04/16 08:40:45;;;;;;;16.43;8.97;;;7.50;99.90;;;;;;809355;175;27024;-77
2024/04/16 08:43:12;;;;;;;5.10;3.83;;;7.60;99.90;;;;;;812351;176;26490;-77
2024/04/16 08:45:38;;;;;;;4.70;2.83;;;7.60;99.90;;;;;;813273;177;26407;-77
2024/04/16 08:48:06;;;;;;;8.17;3.60;;;7.70;99.90;;;;;;813710;177;26422;-78
2024/04/16 08:50:33;;;;;;;8.27;3.40;;;7.70;99.90;;;;;;813332;177;26430;-77
2024/04/16 08:52:59;;;;;;;8.07;3.70;;;7.70;99.90;;;;;;812276;177;26447;-76
2024/04/16 08:55:26;;;;;;;11.63;6.77;;;7.80;99.90;;;;;;807053;177;26435;-76
2024/04/16 08:57:52;;;;;;;7.20;3.73;;;7.80;99.90;;;;;;811177;177;26465;-77
2024/04/16 09:00:19;;;;;;;6.77;3.40;;;7.90;99.90;;;;;;810131;177;26481;-76
2024/04/16 09:02:46;;;;;;;6.70;4.00;;;8.00;99.90;;;;;;811628;176;27032;-76
2024/04/16 09:05:12;;;;;;;6.20;3.53;;;8.20;99.90;;;;;;809442;177;26404;-76
2024/04/16 09:07:40;;;;;;;13.27;6.10;;;8.30;99.90;;;;;;811016;177;26966;-77
2024/04/16 09:10:20;;;;;;;10.03;4.37;;;8.40;99.90;;;;;;810070;177;26436;-77
2024/04/16 09:12:47;;;;;;;9.73;3.93;;;8.50;99.90;;;;;;811107;176;26988;-76
2024/04/16 09:15:13;;;;;;;10.93;4.63;;;8.50;99.90;;;;;;809102;177;26402;-76
2024/04/16 09:17:45;;;;;;;9.40;4.57;;;8.50;99.90;;;;;;808817;177;27001;-77
2024/04/16 09:20:11;;;;;;;11.73;4.63;;;8.50;99.90;;;;;;810659;177;26439;-76
2024/04/16 09:22:38;;;;;;;7.90;3.77;;;8.50;99.90;;;;;;810384;177;26492;-77
2024/04/16 09:25:05;;;;;;;5.43;3.13;;;8.60;99.90;;;;;;810454;177;26403;-76
2024/04/16 09:27:32;;;;;;;8.10;4.90;;;8.60;99.90;;;;;;810378;177;26411;-78
2024/04/16 09:30:06;;;;;;;12.00;4.43;;;8.70;99.90;;;;;;809740;176;26936;-77
2024/04/16 09:32:33;;;;;;;9.93;4.17;;;8.70;99.90;;;;;;807868;177;26460;-77
2024/04/16 09:35:00;;;;;;;8.03;4.47;;;8.80;99.90;;;;;;810219;177;26504;-78
2024/04/16 09:37:26;;;;;;;14.93;6.53;;;8.80;99.90;;;;;;807031;177;26494;-77
2024/04/16 09:39:53;;;;;;;20.57;9.17;;;8.90;99.90;;;;;;808777;177;26504;-76
2024/04/16 09:42:20;;;;;;;16.97;8.07;;;9.00;99.90;;;;;;808852;177;26491;-77
2024/04/16 09:44:46;;;;;;;10.83;4.50;;;9.00;99.90;;;;;;807262;177;26755;-77
2024/04/16 09:47:13;;;;;;;11.23;3.73;;;9.00;99.90;;;;;;810039;177;26415;-77
2024/04/16 09:49:40;;;;;;;6.30;4.20;;;9.10;99.90;;;;;;809933;177;26398;-78
2024/04/16 09:52:07;;;;;;;31.10;14.53;;;9.30;99.90;;;;;;811800;175;26438;-77
2024/04/16 09:54:34;;;;;;;9.00;3.43;;;9.80;99.90;;;;;;813276;176;26411;-76
2024/04/16 09:57:01;;;;;;;8.93;2.83;;;9.90;99.90;;;;;;812590;177;26411;-76
2024/04/16 09:59:27;;;;;;;14.33;4.80;;;9.90;99.90;;;;;;811627;176;26409;-76
2024/04/16 10:01:54;;;;;;;14.87;5.33;;;10.10;99.90;;;;;;811784;177;26463;-76
2024/04/16 10:04:21;;;;;;;9.53;3.27;;;10.20;99.90;;;;;;811798;177;27046;-76
2024/04/16 10:06:47;;;;;;;5.33;2.27;;;10.10;99.90;;;;;;808422;177;26412;-77
2024/04/16 10:09:17;;;;;;;8.10;2.90;;;10.00;99.90;;;;;;811333;177;28089;-77
2024/04/16 10:11:40;;;;;;;12.33;3.20;;;10.10;99.90;;;;;;810756;177;26458;-77
2024/04/16 10:14:07;;;;;;;9.53;2.77;;;10.10;99.90;;;;;;810520;177;26416;-76
2024/04/16 10:16:34;;;;;;;9.27;3.20;;;10.10;99.90;;;;;;811026;177;26403;-78
2024/04/16 10:19:01;;;;;;;23.90;9.03;;;10.20;99.90;;;;;;809344;177;26986;-77
2024/04/16 10:21:28;;;;;;;9.20;2.60;;;10.40;99.90;;;;;;807639;177;26443;-77
2024/04/16 10:24:00;;;;;;;11.03;3.53;;;10.50;99.90;;;;;;810210;177;26431;-77
2024/04/16 10:26:27;;;;;;;23.27;10.93;;;10.40;99.90;;;;;;808097;177;26399;-77
2024/04/16 10:28:55;;;;;;;24.37;8.97;;;10.30;99.90;;;;;;811027;176;26410;-77
2024/04/16 10:31:21;;;;;;;17.60;7.17;;;10.20;99.90;;;;;;806312;177;26540;-76
2024/04/16 10:33:48;;;;;;;6.67;3.07;;;10.20;99.90;;;;;;809403;177;26430;-75
2024/04/16 10:36:15;;;;;;;8.07;2.50;;;10.20;99.90;;;;;;808858;177;26487;-75
2024/04/16 10:38:41;;;;;;;9.70;3.80;;;10.30;99.90;;;;;;810721;177;26407;-77
2024/04/16 10:41:08;;;;;;;15.17;6.90;;;10.40;99.90;;;;;;810154;177;26478;-77
2024/04/16 10:43:41;;;;;;;11.57;4.47;;;10.40;99.90;;;;;;808845;176;26946;-77
2024/04/16 10:46:08;;;;;;;18.53;6.87;;;10.50;99.90;;;;;;808964;177;28035;-77
2024/04/16 10:48:34;;;;;;;7.40;3.27;;;10.60;99.90;;;;;;806349;177;26483;-76
2024/04/16 10:51:01;;;;;;;5.90;2.77;;;10.50;99.90;;;;;;808994;177;26468;-78
2024/04/16 10:53:28;;;;;;;13.03;6.00;;;10.40;99.90;;;;;;805754;177;26484;-78
2024/04/16 10:55:54;;;;;;;11.80;4.10;;;10.50;99.90;;;;;;808627;177;26442;-76
2024/04/16 10:58:21;;;;;;;14.53;4.40;;;10.60;99.90;;;;;;809230;177;26416;-77
2024/04/16 11:00:47;;;;;;;5.93;2.63;;;11.00;99.90;;;;;;809564;177;26446;-77
2024/04/16 11:03:14;;;;;;;10.40;3.93;;;11.20;99.90;;;;;;808870;175;26436;-77
2024/04/16 11:05:41;;;;;;;6.50;3.03;;;11.10;99.90;;;;;;811213;175;26443;-77
2024/04/16 11:08:07;;;;;;;7.57;3.03;;;11.00;99.90;;;;;;806970;177;26395;-77
2024/04/16 11:10:35;;;;;;;5.47;3.40;;;11.10;99.90;;;;;;809199;177;26430;-76
2024/04/16 11:13:01;;;;;;;16.37;7.00;;;11.10;99.90;;;;;;810765;177;27032;-77
2024/04/16 11:15:33;;;;;;;15.03;5.77;;;11.20;99.90;;;;;;801031;177;26475;-76
2024/04/16 11:17:59;;;;;;;15.87;5.23;;;11.20;99.90;;;;;;806673;177;26425;-75
2024/04/16 11:20:26;;;;;;;9.77;3.40;;;11.00;99.90;;;;;;808482;177;26630;-77
2024/04/16 11:22:52;;;;;;;10.37;4.20;;;10.70;99.90;;;;;;808410;177;26432;-77
2024/04/16 11:25:19;;;;;;;15.80;4.07;;;10.30;99.90;;;;;;807428;177;26474;-77
2024/04/16 11:27:46;;;;;;;14.63;4.53;;;9.90;99.90;;;;;;807150;177;26425;-76
2024/04/16 11:30:12;;;;;;;3.53;2.50;;;9.50;99.90;;;;;;809535;177;26435;-76
2024/04/16 11:32:39;;;;;;;7.43;2.37;;;8.90;99.90;;;;;;808015;177;26407;-76
2024/04/16 11:35:07;;;;;;;10.73;2.93;;;8.50;99.90;;;;;;808807;177;26436;-76
2024/04/16 11:37:33;;;;;;;2.53;1.73;;;8.30;99.90;;;;;;807282;177;26942;-77
2024/04/16 11:40:00;;;;;;;5.20;1.80;;;8.10;99.90;;;;;;807448;177;26628;-77
2024/04/16 11:42:26;;;;;;;3.93;1.40;;;8.20;99.90;;;;;;809316;177;26978;-77
2024/04/16 11:44:53;;;;;;;5.73;2.73;;;8.30;99.90;;;;;;807646;177;27006;-76
2024/04/16 11:47:19;;;;;;;9.60;4.13;;;8.20;99.90;;;;;;809380;176;26418;-76
2024/04/16 11:49:46;;;;;;;13.50;5.50;;;8.20;99.90;;;;;;809522;176;27065;-77
2024/04/16 11:52:12;;;;;;;4.67;2.40;;;8.20;99.90;;;;;;809546;177;26415;-76
2024/04/16 11:54:39;;;;;;;9.13;2.83;;;8.30;99.90;;;;;;809454;177;26967;-77
2024/04/16 11:57:06;;;;;;;3.90;2.20;;;8.30;99.90;;;;;;809316;177;26399;-77
2024/04/16 11:59:32;;;;;;;10.77;4.37;;;8.20;99.90;;;;;;809487;177;26949;-77
2024/04/16 12:01:59;;;;;;;13.40;5.97;;;8.10;99.90;;;;;;809038;177;26479;-76
2024/04/16 12:04:25;;;;;;;6.00;3.00;;;8.20;99.90;;;;;;809932;177;26413;-77
2024/04/16 12:06:52;;;;;;;3.77;1.90;;;8.30;99.90;;;;;;809628;177;26460;-78
2024/04/16 12:09:19;;;;;;;3.13;1.77;;;8.40;99.90;;;;;;807562;177;27013;-77
2024/04/16 12:11:45;;;;;;;6.27;2.00;;;8.50;99.90;;;;;;807587;177;26426;-78
2024/04/16 12:14:12;;;;;;;6.10;2.50;;;8.60;99.90;;;;;;809706;176;26444;-78
2024/04/16 12:16:40;;;;;;;5.50;1.67;;;8.70;99.90;;;;;;812082;175;26406;-78
2024/04/16 12:19:05;;;;;;;1.90;1.57;;;8.80;99.90;;;;;;811033;177;26575;-78
2024/04/16 12:21:32;;;;;;;6.70;2.30;;;8.90;99.90;;;;;;811194;177;26437;-78
2024/04/16 12:23:58;;;;;;;3.43;1.93;;;9.10;99.90;;;;;;811260;177;26444;-78
2024/04/16 12:26:25;;;;;;;3.03;1.60;;;9.40;99.90;;;;;;808680;177;26493;-78
2024/04/16 12:28:57;;;;;;;4.97;2.23;;;9.70;99.90;;;;;;810623;176;28094;-78
2024/04/16 12:31:18;;;;;;;3.23;1.70;;;10.10;99.90;;;;;;810121;177;26500;-77
2024/04/16 12:33:44;;;;;;;11.97;6.10;;;10.50;99.90;;;;;;810852;176;26492;-78
2024/04/16 12:36:12;;;;;;;8.50;4.17;;;10.50;99.90;;;;;;811280;177;26391;-77
2024/04/16 12:38:38;;;;;;;5.53;2.43;;;10.60;99.90;;;;;;809170;177;26404;-77
2024/04/16 12:41:04;;;;;;;11.50;3.83;;;10.70;99.90;;;;;;809478;177;26412;-77
2024/04/16 12:43:31;;;;;;;7.37;2.80;;;10.60;99.90;;;;;;806605;177;26411;-77
2024/04/16 12:45:58;;;;;;;7.53;2.93;;;10.50;99.90;;;;;;810186;177;26424;-77
2024/04/16 12:48:27;;;;;;;2.87;2.00;;;10.60;99.90;;;;;;809715;177;26422;-78